Time;durP1;ratioP1;P1;durP2;ratioP2;P2;SDS_P1;SDS_P2;PMS_P1;PMS_P2;Temp;Humidity;BMP_temperature;BMP_pressure;BME280_temperature;BME280_humidity;BME280_pressure;Samples;Min_cycle;Max_cycle;Signal;HPM_P1;HPM_P2
2021/08/31 00:00:47;;;;;;;30.08;27.17;;;;;;;11.78;100.00;98479.19;2089856;28;20238;-73
2021/08/31 00:01:48;;;;;;;31.80;28.77;;;;;;;11.77;100.00;98477.63;2089923;28;20221;-73
2021/08/31 00:02:49;;;;;;;30.40;27.60;;;;;;;11.79;100.00;98479.97;2089251;28;20747;-72
2021/08/31 00:03:50;;;;;;;33.73;30.43;;;;;;;11.78;100.00;98486.44;2089177;28;20565;-73
2021/08/31 00:04:51;;;;;;;33.58;30.20;;;;;;;11.75;100.00;98482.50;2089940;28;20226;-73
2021/08/31 00:05:53;;;;;;;35.33;31.57;;;;;;;11.77;100.00;98474.97;2089489;28;20226;-73
2021/08/31 00:06:53;;;;;;;38.35;33.42;;;;;;;11.77;100.00;98474.19;2089776;28;20301;-73
2021/08/31 00:07:55;;;;;;;38.67;34.13;;;;;;;11.75;100.00;98485.19;2089888;28;20230;-72
2021/08/31 00:08:56;;;;;;;41.08;33.60;;;;;;;11.75;100.00;98482.50;2088947;28;20304;-73
2021/08/31 00:09:57;;;;;;;40.00;33.03;;;;;;;11.74;100.00;98480.16;2081022;28;20238;-73
2021/08/31 00:10:58;;;;;;;40.60;35.30;;;;;;;11.74;100.00;98486.28;2089056;28;20230;-73
2021/08/31 00:12:01;;;;;;;44.67;35.30;;;;;;;11.73;100.00;98482.06;2089688;28;20280;-73
2021/08/31 00:13:02;;;;;;;41.35;36.17;;;;;;;11.73;100.00;98479.38;2089863;28;20221;-73
2021/08/31 00:14:04;;;;;;;35.60;31.90;;;;;;;11.75;100.00;98487.06;2089319;28;20214;-73
2021/08/31 00:15:06;;;;;;;33.20;29.65;;;;;;;11.74;100.00;98483.63;2080722;28;20215;-72
2021/08/31 00:16:08;;;;;;;32.85;28.65;;;;;;;11.74;100.00;98482.84;2080443;28;20273;-74
2021/08/31 00:17:10;;;;;;;32.60;29.20;;;;;;;11.76;100.00;98485.97;2088875;28;20756;-73
2021/08/31 00:18:11;;;;;;;33.13;29.77;;;;;;;11.76;100.00;98491.31;2088794;28;20249;-73
2021/08/31 00:19:12;;;;;;;32.37;29.17;;;;;;;11.74;100.00;98483.63;2089107;28;20227;-73
2021/08/31 00:20:14;;;;;;;30.55;27.75;;;;;;;11.74;100.00;98483.63;2089760;28;20309;-73
2021/08/31 00:21:16;;;;;;;32.15;28.90;;;;;;;11.73;100.00;98490.06;2088907;28;20223;-72
2021/08/31 00:22:16;;;;;;;32.67;29.52;;;;;;;11.74;100.00;98490.84;2089029;28;20222;-73
2021/08/31 00:23:18;;;;;;;32.23;29.13;;;;;;;11.72;100.00;98490.38;2088915;28;20284;-73
2021/08/31 00:24:18;;;;;;;33.25;30.10;;;;;;;11.71;100.00;98483.44;2088894;28;20295;-73
2021/08/31 00:25:20;;;;;;;34.23;30.90;;;;;;;11.68;100.00;98484.88;2089660;28;20296;-72
2021/08/31 00:26:21;;;;;;;32.42;29.52;;;;;;;11.69;100.00;98491.78;2088884;28;20268;-72
2021/08/31 00:27:24;;;;;;;32.93;29.40;;;;;;;11.68;100.00;98494.78;2088597;28;20669;-74
2021/08/31 00:28:24;;;;;;;32.33;29.17;;;;;;;11.66;100.00;98491.66;2089582;28;20226;-72
2021/08/31 00:29:26;;;;;;;32.93;29.63;;;;;;;11.68;100.00;98508.94;2089683;28;20313;-73
2021/08/31 00:30:26;;;;;;;34.83;31.63;;;;;;;11.66;100.00;98491.66;2089598;28;20237;-73
2021/08/31 00:31:28;;;;;;;33.73;30.73;;;;;;;11.66;100.00;98500.44;2089621;28;20222;-72
2021/08/31 00:32:29;;;;;;;33.10;30.00;;;;;;;11.63;100.00;98506.41;2089509;28;20223;-73
2021/08/31 00:33:30;;;;;;;32.93;29.77;;;;;;;11.65;100.00;98498.09;2089649;28;20235;-72
2021/08/31 00:34:31;;;;;;;35.47;32.05;;;;;;;11.63;100.00;98492.25;2089678;28;20226;-72
2021/08/31 00:35:32;;;;;;;32.87;29.80;;;;;;;11.66;100.00;98499.66;2089607;28;20230;-73
2021/08/31 00:36:33;;;;;;;34.10;30.73;;;;;;;11.59;100.00;98487.56;2089658;28;20625;-72
2021/08/31 00:37:34;;;;;;;33.10;30.10;;;;;;;11.59;100.00;98494.78;2089595;28;20223;-73
2021/08/31 00:38:35;;;;;;;33.97;30.88;;;;;;;11.59;100.00;98510.81;2089598;28;20301;-72
2021/08/31 00:39:37;;;;;;;32.33;29.43;;;;;;;11.62;100.00;98504.84;2088694;28;20231;-73
2021/08/31 00:40:38;;;;;;;32.65;29.40;;;;;;;11.58;100.00;98499.34;2088490;28;20318;-73
2021/08/31 00:41:39;;;;;;;31.45;28.63;;;;;;;11.56;100.00;98498.91;2089607;28;20236;-72
2021/08/31 00:42:42;;;;;;;32.10;29.27;;;;;;;11.53;100.00;98498.72;2089612;28;20226;-72
2021/08/31 00:43:44;;;;;;;31.67;28.75;;;;;;;11.50;100.00;98494.81;2089601;28;20301;-72
2021/08/31 00:44:45;;;;;;;32.50;29.42;;;;;;;11.48;100.00;98491.66;2088406;28;20308;-73
2021/08/31 00:45:48;;;;;;;32.08;29.02;;;;;;;11.47;100.00;98484.75;2088710;28;20302;-72
2021/08/31 00:46:50;;;;;;;32.30;29.25;;;;;;;11.48;100.00;98493.56;2080812;28;20231;-73
2021/08/31 00:47:51;;;;;;;32.30;29.27;;;;;;;11.50;100.00;98494.03;2088828;28;20214;-73
2021/08/31 00:48:52;;;;;;;32.83;29.73;;;;;;;11.47;100.00;98486.66;2089618;28;20225;-72
2021/08/31 00:49:53;;;;;;;33.50;30.25;;;;;;;11.53;100.00;98498.72;2088325;28;20223;-73
2021/08/31 00:50:54;;;;;;;32.10;29.17;;;;;;;11.49;100.00;98495.91;2088821;28;20254;-72
2021/08/31 00:51:57;;;;;;;30.73;27.55;;;;;;;11.45;100.00;98494.16;2088836;28;20233;-72
2021/08/31 00:52:59;;;;;;;31.08;28.17;;;;;;;11.43;100.00;98493.69;2088655;28;20215;-73
2021/08/31 00:54:00;;;;;;;31.73;28.73;;;;;;;11.45;100.00;98499.50;2080727;28;20663;-73
2021/08/31 00:55:02;;;;;;;31.57;28.47;;;;;;;11.41;100.00;98494.03;2080474;28;20227;-72
2021/08/31 00:56:04;;;;;;;33.58;30.30;;;;;;;11.40;100.00;98497.00;2088817;28;20297;-72
2021/08/31 00:57:06;;;;;;;31.70;28.58;;;;;;;11.41;100.00;98495.91;2088857;28;20229;-72
2021/08/31 00:58:08;;;;;;;31.00;27.70;;;;;;;11.40;100.00;98497.78;2088931;28;20250;-74
2021/08/31 00:59:10;;;;;;;30.77;27.88;;;;;;;11.40;100.00;98499.69;2089398;28;20229;-72
2021/08/31 01:00:12;;;;;;;32.22;28.98;;;;;;;11.41;100.00;98506.59;2089348;28;20230;-73
2021/08/31 01:01:14;;;;;;;33.03;29.63;;;;;;;11.41;100.00;98506.59;2089384;28;20552;-73
2021/08/31 01:02:15;;;;;;;31.52;28.52;;;;;;;11.38;100.00;98508.03;2088522;28;20254;-72
2021/08/31 01:03:17;;;;;;;34.33;28.63;;;;;;;11.43;100.00;98507.84;2088802;28;20218;-73
2021/08/31 01:04:17;;;;;;;32.88;29.67;;;;;;;11.42;100.00;98505.50;2088943;28;20222;-72
2021/08/31 01:05:19;;;;;;;31.27;28.07;;;;;;;11.42;100.00;98508.16;2088658;28;20246;-72
2021/08/31 01:06:19;;;;;;;32.72;29.38;;;;;;;11.41;100.00;98496.69;2089404;28;20244;-73
2021/08/31 01:07:22;;;;;;;31.87;28.90;;;;;;;11.42;100.00;98505.50;2089416;28;20218;-72
2021/08/31 01:08:22;;;;;;;32.65;29.48;;;;;;;11.38;100.00;98500.00;2088937;28;20223;-74
2021/08/31 01:09:25;;;;;;;32.43;29.53;;;;;;;11.38;100.00;98496.53;2089400;28;20221;-72
2021/08/31 01:10:26;;;;;;;32.38;29.20;;;;;;;11.39;100.00;98498.13;2089326;28;20225;-73
2021/08/31 01:11:28;;;;;;;33.80;30.63;;;;;;;11.44;100.00;98505.97;2088807;28;20226;-73
2021/08/31 01:12:28;;;;;;;32.05;28.90;;;;;;;11.40;100.00;98505.03;2088477;28;20238;-72
2021/08/31 01:13:32;;;;;;;31.53;28.57;;;;;;;11.46;100.00;98499.19;2089343;28;20223;-73
2021/08/31 01:14:32;;;;;;;31.15;28.25;;;;;;;11.44;100.00;98497.94;2088503;28;20246;-73
2021/08/31 01:15:34;;;;;;;30.97;27.87;;;;;;;11.40;100.00;98497.78;2080240;28;20226;-72
2021/08/31 01:16:35;;;;;;;31.45;28.38;;;;;;;11.44;100.00;98497.94;2080227;28;20294;-74
2021/08/31 01:17:37;;;;;;;32.08;28.98;;;;;;;11.42;100.00;98494.81;2080088;28;20223;-73
2021/08/31 01:18:37;;;;;;;32.88;29.73;;;;;;;11.42;100.00;98500.94;2079836;28;20679;-73
2021/08/31 01:19:39;;;;;;;31.37;28.37;;;;;;;11.48;100.00;98498.91;2080201;28;20597;-72
2021/08/31 01:20:40;;;;;;;30.73;27.92;;;;;;;11.44;100.00;98500.63;2088627;28;20309;-72
2021/08/31 01:21:42;;;;;;;31.40;28.60;;;;;;;11.44;100.00;98497.94;2089324;28;20234;-73
2021/08/31 01:22:42;;;;;;;30.27;27.42;;;;;;;11.42;100.00;98498.25;2089240;28;20234;-73
2021/08/31 01:23:46;;;;;;;32.27;29.03;;;;;;;11.40;100.00;98495.13;2089215;28;20222;-74
2021/08/31 01:24:47;;;;;;;32.28;29.13;;;;;;;11.41;100.00;98493.25;2089227;28;20245;-74
2021/08/31 01:25:50;;;;;;;30.35;27.75;;;;;;;11.41;100.00;98487.91;2089201;28;20268;-73
2021/08/31 01:26:51;;;;;;;29.10;26.60;;;;;;;11.41;100.00;98494.03;2088565;28;20221;-73
2021/08/31 01:27:52;;;;;;;30.27;27.53;;;;;;;11.41;100.00;98479.88;2088122;28;20276;-74
2021/08/31 01:28:53;;;;;;;30.45;27.73;;;;;;;11.42;100.00;98486.78;2089071;28;20225;-73
2021/08/31 01:29:56;;;;;;;29.13;26.43;;;;;;;11.40;100.00;98495.13;2089223;28;20280;-73
2021/08/31 01:30:58;;;;;;;29.73;27.23;;;;;;;11.46;100.00;98495.72;2089163;28;20226;-73
2021/08/31 01:32:00;;;;;;;30.40;27.63;;;;;;;11.45;100.00;98494.16;2089063;28;20305;-72
2021/08/31 01:33:02;;;;;;;30.73;27.73;;;;;;;11.45;100.00;98491.50;2089125;28;20218;-73
2021/08/31 01:34:03;;;;;;;29.33;26.83;;;;;;;11.47;100.00;98500.00;2089035;28;20223;-72
2021/08/31 01:35:05;;;;;;;29.83;26.87;;;;;;;11.45;100.00;98494.16;2088629;28;20222;-73
2021/08/31 01:36:14;;;;;;;30.35;27.65;;;;;;;11.45;100.00;98494.94;2088395;28;20762;-72
2021/08/31 01:37:16;;;;;;;29.30;26.70;;;;;;;11.47;100.00;98489.31;2088647;28;20275;-73
2021/08/31 01:38:16;;;;;;;28.75;26.25;;;;;;;11.47;100.00;98494.66;2089176;28;20226;-73
2021/08/31 01:39:18;;;;;;;29.93;27.13;;;;;;;11.49;100.00;98493.22;2089091;28;20230;-73
2021/08/31 01:40:19;;;;;;;28.58;26.10;;;;;;;11.48;100.00;98488.22;2089063;28;20222;-72
2021/08/31 01:41:22;;;;;;;29.23;26.73;;;;;;;11.48;100.00;98490.88;2089003;28;20302;-72
2021/08/31 01:42:23;;;;;;;28.83;26.33;;;;;;;11.47;100.00;98484.75;2087893;28;20231;-73
2021/08/31 01:43:26;;;;;;;31.77;28.30;;;;;;;11.44;100.00;98490.72;2080264;28;20231;-72
2021/08/31 01:44:27;;;;;;;27.73;25.33;;;;;;;11.44;100.00;98480.03;2088377;28;20685;-72
2021/08/31 01:45:29;;;;;;;29.27;26.77;;;;;;;11.45;100.00;98480.81;2089185;28;20294;-73
2021/08/31 01:46:30;;;;;;;29.00;26.40;;;;;;;11.45;100.00;98483.47;2088270;28;20222;-73
2021/08/31 01:47:32;;;;;;;30.30;27.70;;;;;;;11.44;100.00;98484.59;2088313;28;20226;-73
2021/08/31 01:48:32;;;;;;;29.67;27.08;;;;;;;11.46;100.00;98483.16;2088237;28;20306;-72
2021/08/31 01:49:34;;;;;;;29.67;27.17;;;;;;;11.46;100.00;98487.72;2088316;28;20234;-73
2021/08/31 01:50:34;;;;;;;27.90;25.38;;;;;;;11.46;100.00;98482.38;2089018;28;20218;-73
2021/08/31 01:51:36;;;;;;;28.17;25.57;;;;;;;11.45;100.00;98481.59;2088978;28;20229;-72
2021/08/31 01:52:37;;;;;;;28.27;25.73;;;;;;;11.44;100.00;98479.25;2087786;28;20707;-75
2021/08/31 01:53:38;;;;;;;28.60;26.10;;;;;;;11.48;100.00;98485.53;2088326;28;20610;-72
2021/08/31 01:54:39;;;;;;;28.45;25.60;;;;;;;11.45;100.00;98476.25;2088967;28;20238;-72
2021/08/31 01:55:41;;;;;;;26.60;24.20;;;;;;;11.46;100.00;98485.06;2088559;28;20234;-73
2021/08/31 01:56:44;;;;;;;27.63;25.05;;;;;;;11.43;100.00;98475.78;2088540;28;21475;-73
2021/08/31 01:57:44;;;;;;;27.67;25.38;;;;;;;11.45;100.00;98475.47;2089040;28;20211;-73
2021/08/31 01:58:46;;;;;;;28.67;25.97;;;;;;;11.44;100.00;98476.56;2088935;28;20222;-73
2021/08/31 01:59:46;;;;;;;27.85;25.45;;;;;;;11.44;100.00;98473.91;2088514;28;20231;-73
2021/08/31 02:00:48;;;;;;;28.53;25.83;;;;;;;11.43;100.00;98470.44;2088318;28;20218;-73
2021/08/31 02:01:49;;;;;;;27.65;25.25;;;;;;;11.47;100.00;98483.97;2089000;28;20302;-73
2021/08/31 02:02:50;;;;;;;28.85;26.35;;;;;;;11.48;100.00;98478.31;2088929;28;20249;-73
2021/08/31 02:03:52;;;;;;;28.93;26.53;;;;;;;11.49;100.00;98476.41;2088293;28;20223;-73
2021/08/31 02:04:52;;;;;;;30.20;27.55;;;;;;;11.48;100.00;98475.63;2079745;28;20247;-73
2021/08/31 02:05:54;;;;;;;28.07;25.60;;;;;;;11.46;100.00;98472.47;2088221;28;20234;-73
2021/08/31 02:06:55;;;;;;;28.27;25.67;;;;;;;11.48;100.00;98469.50;2088066;28;20218;-72
2021/08/31 02:07:56;;;;;;;28.50;26.00;;;;;;;11.49;100.00;98476.41;2088313;28;20215;-72
2021/08/31 02:08:57;;;;;;;27.83;25.50;;;;;;;11.49;100.00;98468.41;2088344;28;20340;-73
2021/08/31 02:09:58;;;;;;;30.20;27.60;;;;;;;11.49;100.00;98465.75;2088206;28;20238;-73
2021/08/31 02:10:59;;;;;;;30.50;27.73;;;;;;;11.49;100.00;98466.53;2088851;28;20257;-73
2021/08/31 02:12:02;;;;;;;30.37;27.53;;;;;;;11.47;100.00;98468.72;2088686;28;20214;-72
2021/08/31 02:13:03;;;;;;;28.88;26.35;;;;;;;11.51;100.00;98468.88;2087716;28;20306;-73
2021/08/31 02:14:05;;;;;;;29.42;26.88;;;;;;;11.52;100.00;98467.75;2080085;28;20658;-73
2021/08/31 02:15:08;;;;;;;28.98;26.67;;;;;;;11.54;100.00;98468.22;2079741;28;20746;-72
2021/08/31 02:16:10;;;;;;;28.10;25.67;;;;;;;11.54;100.00;98468.22;2088153;28;20309;-74
2021/08/31 02:17:11;;;;;;;29.08;26.52;;;;;;;11.55;100.00;98465.25;2088735;28;20253;-73
2021/08/31 02:18:12;;;;;;;28.47;25.97;;;;;;;11.52;100.00;98462.44;2088032;28;20230;-72
2021/08/31 02:19:13;;;;;;;28.73;26.23;;;;;;;11.52;100.00;98457.88;2088092;28;20728;-73
2021/08/31 02:20:15;;;;;;;29.40;26.80;;;;;;;11.51;100.00;98455.50;2088785;28;20528;-73
2021/08/31 02:21:16;;;;;;;30.42;27.52;;;;;;;11.51;100.00;98453.63;2088773;28;20215;-73
2021/08/31 02:22:17;;;;;;;30.90;27.97;;;;;;;11.54;100.00;98457.53;2088861;28;20838;-73
2021/08/31 02:23:18;;;;;;;30.73;27.83;;;;;;;11.57;100.00;98459.59;2088832;28;20241;-73
2021/08/31 02:24:20;;;;;;;30.67;27.70;;;;;;;11.55;100.00;98454.56;2088886;28;20218;-73
2021/08/31 02:25:20;;;;;;;28.98;26.20;;;;;;;11.52;100.00;98449.84;2087983;28;20716;-73
2021/08/31 02:26:22;;;;;;;30.23;27.40;;;;;;;11.55;100.00;98453.75;2088083;28;20551;-73
2021/08/31 02:27:24;;;;;;;28.98;26.33;;;;;;;11.55;100.00;98456.44;2088196;28;20665;-72
2021/08/31 02:28:25;;;;;;;30.20;27.27;;;;;;;11.52;100.00;98449.06;2088712;28;20243;-73
2021/08/31 02:29:26;;;;;;;29.15;26.55;;;;;;;11.55;100.00;98453.75;2088855;28;20693;-73
2021/08/31 02:30:28;;;;;;;28.60;25.63;;;;;;;11.54;100.00;98450.31;2088832;28;20564;-73
2021/08/31 02:31:28;;;;;;;29.85;27.20;;;;;;;11.54;100.00;98450.31;2088775;28;20243;-73
2021/08/31 02:32:30;;;;;;;30.07;27.17;;;;;;;11.57;100.00;98451.59;2088127;28;20227;-72
2021/08/31 02:33:32;;;;;;;31.10;28.05;;;;;;;11.56;100.00;98439.34;2088054;28;20238;-73
2021/08/31 02:34:32;;;;;;;31.13;28.13;;;;;;;11.60;100.00;98450.94;2088701;28;20306;-73
2021/08/31 02:35:34;;;;;;;30.40;27.70;;;;;;;11.58;100.00;98445.91;2088674;28;20226;-73
2021/08/31 02:36:35;;;;;;;31.77;28.77;;;;;;;11.59;100.00;98444.03;2087981;28;20249;-73
2021/08/31 02:37:37;;;;;;;30.48;27.67;;;;;;;11.61;100.00;98436.47;2079225;28;20254;-74
2021/08/31 02:38:39;;;;;;;30.80;27.90;;;;;;;11.60;100.00;98442.94;2088040;28;20249;-72
2021/08/31 02:39:40;;;;;;;30.45;27.33;;;;;;;11.55;100.00;98438.56;2088801;28;20243;-73
2021/08/31 02:40:41;;;;;;;30.40;26.97;;;;;;;11.56;100.00;98439.34;2088656;28;20227;-72
2021/08/31 02:41:42;;;;;;;31.10;27.98;;;;;;;11.58;100.00;98445.91;2087826;28;20250;-72
2021/08/31 02:42:45;;;;;;;31.37;27.13;;;;;;;11.57;100.00;98441.69;2087967;28;20281;-73
2021/08/31 02:43:45;;;;;;;30.42;27.30;;;;;;;11.59;100.00;98441.34;2088725;28;20230;-73
2021/08/31 02:44:47;;;;;;;31.00;27.80;;;;;;;11.58;100.00;98443.25;2087761;28;20226;-73
2021/08/31 02:45:49;;;;;;;28.80;25.98;;;;;;;11.57;100.00;98438.22;2088099;28;20250;-72
2021/08/31 02:46:50;;;;;;;29.67;26.50;;;;;;;11.57;100.00;98431.00;2088630;28;20310;-73
2021/08/31 02:47:52;;;;;;;31.47;27.73;;;;;;;11.53;100.00;98424.69;2088770;28;20233;-73
2021/08/31 02:48:52;;;;;;;30.67;27.40;;;;;;;11.57;100.00;98443.56;2088153;28;20768;-73
2021/08/31 02:49:54;;;;;;;32.70;29.20;;;;;;;11.58;100.00;98426.44;2087798;28;20579;-73
2021/08/31 02:50:54;;;;;;;32.55;27.15;;;;;;;11.59;100.00;98431.47;2087811;28;20261;-72
2021/08/31 02:51:56;;;;;;;31.53;28.10;;;;;;;11.57;100.00;98425.66;2088559;28;20233;-73
2021/08/31 02:52:56;;;;;;;32.92;28.95;;;;;;;11.56;100.00;98429.44;2088049;28;20261;-73
2021/08/31 02:53:58;;;;;;;32.80;28.83;;;;;;;11.57;100.00;98428.31;2088140;28;20222;-72
2021/08/31 02:54:59;;;;;;;32.08;27.70;;;;;;;11.57;100.00;98424.88;2088657;28;20638;-73
2021/08/31 02:56:00;;;;;;;38.67;31.50;;;;;;;11.60;100.00;98429.56;2088555;28;20230;-72
2021/08/31 02:57:01;;;;;;;34.10;30.40;;;;;;;11.60;100.00;98430.34;2088136;28;20293;-73
2021/08/31 02:58:04;;;;;;;34.57;30.87;;;;;;;11.58;100.00;98423.75;2087779;28;20230;-74
2021/08/31 02:59:05;;;;;;;36.45;32.35;;;;;;;11.58;100.00;98426.44;2079641;28;20238;-73
2021/08/31 03:00:08;;;;;;;34.87;30.43;;;;;;;11.58;100.00;98426.44;2087888;28;20230;-72
2021/08/31 03:01:28;;;;;;;36.67;31.20;;;;;;;11.57;100.00;98422.97;2088315;28;20588;-72
2021/08/31 03:02:30;;;;;;;35.25;31.30;;;;;;;11.61;100.00;98423.13;2087359;28;20284;-73
2021/08/31 03:03:31;;;;;;;35.20;31.48;;;;;;;11.59;100.00;98425.31;2087877;28;20249;-72
2021/08/31 03:04:33;;;;;;;39.75;33.28;;;;;;;11.60;100.00;98432.25;2088623;28;20580;-73
2021/08/31 03:05:34;;;;;;;43.03;33.55;;;;;;;11.60;100.00;98413.53;2088500;28;20230;-74
2021/08/31 03:06:35;;;;;;;36.92;32.65;;;;;;;11.61;100.00;98423.13;2087700;28;20611;-72
2021/08/31 03:07:36;;;;;;;38.10;33.10;;;;;;;11.61;100.00;98425.78;2087774;28;20352;-73
2021/08/31 03:08:38;;;;;;;41.33;33.92;;;;;;;11.64;100.00;98417.16;2088221;28;20273;-73
2021/08/31 03:09:40;;;;;;;38.92;33.80;;;;;;;11.71;100.00;98422.00;2089824;28;20226;-73
2021/08/31 03:10:41;;;;;;;40.30;34.80;;;;;;;11.67;100.00;98427.19;2089495;28;20234;-73
2021/08/31 03:11:42;;;;;;;40.27;35.27;;;;;;;11.62;100.00;98419.34;2090395;28;20222;-73
2021/08/31 03:12:43;;;;;;;38.55;32.67;;;;;;;11.63;100.00;98420.13;2090215;28;20222;-73
2021/08/31 03:13:46;;;;;;;37.40;32.67;;;;;;;11.63;100.00;98422.78;2090262;28;20222;-73
2021/08/31 03:14:48;;;;;;;43.30;33.53;;;;;;;11.61;100.00;98415.88;2090318;28;20215;-73
2021/08/31 03:15:49;;;;;;;37.13;33.05;;;;;;;11.65;100.00;98424.06;2090247;28;20218;-73
2021/08/31 03:16:52;;;;;;;38.35;32.97;;;;;;;11.68;100.00;98417.28;2090297;28;20309;-73
2021/08/31 03:17:53;;;;;;;38.30;33.28;;;;;;;11.66;100.00;98425.63;2089742;28;20253;-73
2021/08/31 03:18:54;;;;;;;38.92;33.78;;;;;;;11.63;100.00;98422.78;2089638;28;20625;-73
2021/08/31 03:19:55;;;;;;;39.83;35.23;;;;;;;11.69;100.00;98433.00;2089463;28;20249;-74
2021/08/31 03:20:56;;;;;;;39.17;33.58;;;;;;;11.65;100.00;98421.41;2090235;28;20222;-73
2021/08/31 03:21:59;;;;;;;37.17;33.17;;;;;;;11.65;100.00;98421.41;2090168;28;20230;-73
2021/08/31 03:23:01;;;;;;;38.08;31.33;;;;;;;11.62;100.00;98422.00;2089316;28;20752;-73
2021/08/31 03:24:01;;;;;;;36.05;32.28;;;;;;;11.65;100.00;98418.72;2089466;28;20321;-72
2021/08/31 03:25:03;;;;;;;39.13;31.03;;;;;;;11.63;100.00;98422.78;2090133;28;20226;-73
2021/08/31 03:26:04;;;;;;;35.15;31.45;;;;;;;11.63;100.00;98426.25;2090277;28;20230;-73
2021/08/31 03:27:06;;;;;;;33.70;30.40;;;;;;;11.61;100.00;98426.56;2090336;28;20718;-73
2021/08/31 03:28:07;;;;;;;32.83;29.35;;;;;;;11.61;100.00;98431.13;2088956;28;20237;-74
2021/08/31 03:29:10;;;;;;;35.43;29.57;;;;;;;11.58;100.00;98426.44;2080997;28;20250;-73
2021/08/31 03:30:12;;;;;;;31.35;28.08;;;;;;;11.62;100.00;98430.03;2081073;28;20262;-73
2021/08/31 03:31:13;;;;;;;29.08;26.13;;;;;;;11.66;100.00;98430.19;2080822;28;20250;-73
2021/08/31 03:32:14;;;;;;;32.87;29.23;;;;;;;11.65;100.00;98432.09;2089357;28;20226;-73
2021/08/31 03:33:15;;;;;;;33.00;29.70;;;;;;;11.63;100.00;98425.47;2090166;28;20753;-72
2021/08/31 03:34:17;;;;;;;31.07;28.07;;;;;;;11.62;100.00;98422.00;2090257;28;20603;-72
2021/08/31 03:35:21;;;;;;;31.67;28.58;;;;;;;11.60;100.00;98430.34;2090230;28;20219;-73
2021/08/31 03:36:22;;;;;;;29.15;26.35;;;;;;;11.64;100.00;98425.16;2090095;28;20317;-73
2021/08/31 03:37:23;;;;;;;30.52;27.55;;;;;;;11.61;100.00;98425.78;2089808;28;20223;-74
2021/08/31 03:38:24;;;;;;;29.90;27.00;;;;;;;11.59;100.00;98422.66;2089538;28;20254;-73
2021/08/31 03:39:26;;;;;;;29.88;26.77;;;;;;;11.60;100.00;98417.00;2081032;28;20783;-72
2021/08/31 03:40:27;;;;;;;29.90;27.00;;;;;;;11.63;100.00;98423.56;2089254;28;20283;-72
2021/08/31 03:41:28;;;;;;;28.53;25.77;;;;;;;11.66;100.00;98422.19;2090147;28;20230;-73
2021/08/31 03:42:29;;;;;;;29.48;26.40;;;;;;;11.62;100.00;98424.69;2090085;28;20235;-73
2021/08/31 03:43:30;;;;;;;30.47;27.33;;;;;;;11.63;100.00;98426.25;2090103;28;20231;-73
2021/08/31 03:44:32;;;;;;;29.95;27.23;;;;;;;11.62;100.00;98432.69;2089144;28;20306;-72
2021/08/31 03:45:34;;;;;;;29.30;26.23;;;;;;;11.60;100.00;98427.69;2089341;28;20223;-72
2021/08/31 03:46:34;;;;;;;29.20;26.20;;;;;;;11.57;100.00;98424.88;2089936;28;20305;-73
2021/08/31 03:47:36;;;;;;;30.40;27.50;;;;;;;11.57;100.00;98424.88;2090072;28;20227;-73
2021/08/31 03:48:37;;;;;;;31.98;28.73;;;;;;;11.56;100.00;98429.44;2089701;28;20677;-74
2021/08/31 03:49:40;;;;;;;30.38;27.48;;;;;;;11.57;100.00;98422.19;2089388;28;20238;-73
2021/08/31 03:50:41;;;;;;;32.28;29.17;;;;;;;11.60;100.00;98425.00;2089158;28;20231;-72
2021/08/31 03:51:42;;;;;;;31.07;28.10;;;;;;;11.60;100.00;98422.34;2089420;28;20235;-73
2021/08/31 03:52:43;;;;;;;31.45;28.10;;;;;;;11.58;100.00;98424.53;2089004;28;20234;-73
2021/08/31 03:53:44;;;;;;;30.53;27.57;;;;;;;11.57;100.00;98424.88;2089322;28;20242;-73
2021/08/31 03:54:45;;;;;;;41.60;28.10;;;;;;;11.59;100.00;98428.00;2089872;28;20239;-73
2021/08/31 03:55:47;;;;;;;31.10;28.00;;;;;;;11.58;100.00;98426.44;2089038;28;20214;-73
2021/08/31 03:56:48;;;;;;;31.20;28.27;;;;;;;11.57;100.00;98427.53;2089311;28;20239;-73
2021/08/31 03:57:49;;;;;;;32.38;29.38;;;;;;;11.58;100.00;98421.88;2090048;28;20562;-73
2021/08/31 03:58:50;;;;;;;33.27;29.93;;;;;;;11.62;100.00;98422.00;2089831;28;20244;-73
2021/08/31 03:59:52;;;;;;;31.75;28.65;;;;;;;11.65;100.00;98428.63;2089397;28;20788;-73
2021/08/31 04:00:54;;;;;;;30.27;27.45;;;;;;;11.59;100.00;98422.66;2080430;28;20223;-73
2021/08/31 04:01:54;;;;;;;34.63;27.80;;;;;;;11.58;100.00;98424.53;2088682;28;20238;-73
2021/08/31 04:02:56;;;;;;;31.23;28.13;;;;;;;11.58;100.00;98429.09;2089123;28;20219;-73
2021/08/31 04:03:58;;;;;;;30.20;27.35;;;;;;;11.59;100.00;98431.47;2089785;28;20310;-73
2021/08/31 04:04:58;;;;;;;32.50;29.13;;;;;;;11.59;100.00;98430.66;2089270;28;20309;-73
2021/08/31 04:06:00;;;;;;;32.30;29.40;;;;;;;11.60;100.00;98426.91;2089288;28;20218;-73
2021/08/31 04:07:00;;;;;;;33.40;30.20;;;;;;;11.59;100.00;98428.00;2089026;28;20690;-73
2021/08/31 04:08:02;;;;;;;32.17;29.07;;;;;;;11.64;100.00;98430.53;2081049;28;20305;-74
2021/08/31 04:09:03;;;;;;;33.80;30.50;;;;;;;11.60;100.00;98429.56;2089110;28;20671;-73
2021/08/31 04:10:05;;;;;;;32.47;29.47;;;;;;;11.58;100.00;98421.88;2089958;28;20245;-73
2021/08/31 04:11:06;;;;;;;32.85;29.30;;;;;;;11.59;100.00;98423.44;2089854;28;20280;-72
2021/08/31 04:12:08;;;;;;;31.27;28.27;;;;;;;11.61;100.00;98425.78;2089450;28;20230;-74
2021/08/31 04:13:12;;;;;;;30.65;27.75;;;;;;;11.59;100.00;98428.00;2089723;28;20290;-73
2021/08/31 04:14:13;;;;;;;34.00;29.00;;;;;;;11.61;100.00;98425.78;2089716;28;20230;-73
2021/08/31 04:15:15;;;;;;;32.22;29.13;;;;;;;11.61;100.00;98431.13;2089697;28;20227;-73
2021/08/31 04:16:17;;;;;;;33.15;29.80;;;;;;;11.57;100.00;98425.66;2089790;28;20283;-74
2021/08/31 04:17:17;;;;;;;31.65;28.35;;;;;;;11.60;100.00;98422.34;2088921;28;20250;-73
2021/08/31 04:18:19;;;;;;;30.90;27.80;;;;;;;11.60;100.00;98429.56;2080810;28;20234;-73
2021/08/31 04:19:20;;;;;;;31.98;28.88;;;;;;;11.62;100.00;98432.69;2088663;28;20215;-72
2021/08/31 04:20:21;;;;;;;31.30;28.40;;;;;;;11.60;100.00;98429.56;2089210;28;20224;-72
2021/08/31 04:21:22;;;;;;;32.90;29.70;;;;;;;11.60;100.00;98426.91;2089410;28;20222;-74
2021/08/31 04:22:23;;;;;;;31.65;28.65;;;;;;;11.64;100.00;98430.53;2089657;28;20623;-73
2021/08/31 04:23:25;;;;;;;33.93;30.73;;;;;;;11.60;100.00;98424.22;2088925;28;20312;-73
2021/08/31 04:24:25;;;;;;;32.55;29.35;;;;;;;11.66;100.00;98427.53;2088925;28;20579;-73
2021/08/31 04:25:27;;;;;;;32.30;29.20;;;;;;;11.69;100.00;98427.66;2089139;28;20227;-72
2021/08/31 04:26:28;;;;;;;31.90;28.85;;;;;;;11.67;100.00;98429.88;2088984;28;20258;-73
2021/08/31 04:27:29;;;;;;;30.70;27.50;;;;;;;11.67;100.00;98431.75;2089704;28;20707;-73
2021/08/31 04:28:30;;;;;;;31.02;27.70;;;;;;;11.66;100.00;98432.88;2089199;28;20790;-73
2021/08/31 04:29:31;;;;;;;30.00;26.97;;;;;;;11.65;100.00;98429.41;2080594;28;20609;-72
2021/08/31 04:30:33;;;;;;;31.63;28.45;;;;;;;11.67;100.00;98432.53;2088339;28;20219;-73
2021/08/31 04:31:35;;;;;;;30.17;27.13;;;;;;;11.68;100.00;98427.97;2088936;28;20235;-73
2021/08/31 04:32:36;;;;;;;31.05;27.80;;;;;;;11.66;100.00;98427.53;2089575;28;20230;-73
2021/08/31 04:33:37;;;;;;;31.17;27.97;;;;;;;11.69;100.00;98424.19;2089234;28;20230;-75
2021/08/31 04:34:38;;;;;;;30.85;27.63;;;;;;;11.68;100.00;98426.09;2089648;28;20250;-73
2021/08/31 04:35:39;;;;;;;31.37;28.07;;;;;;;11.70;100.00;98423.88;2088974;28;20340;-73
2021/08/31 04:36:40;;;;;;;31.15;28.08;;;;;;;11.70;100.00;98426.56;2088743;28;20234;-72
2021/08/31 04:37:41;;;;;;;34.03;28.43;;;;;;;11.69;100.00;98426.88;2089179;28;20231;-73
2021/08/31 04:38:42;;;;;;;32.25;28.95;;;;;;;11.70;100.00;98431.13;2088900;28;20764;-73
2021/08/31 04:39:44;;;;;;;30.77;27.70;;;;;;;11.72;100.00;98427.00;2089529;28;20567;-73